createdAt,value
2018-05-17T00:00:28.055Z,1009.98
2018-05-17T00:01:28.048Z,1010.01
2018-05-17T00:02:28.018Z,1010.01
2018-05-17T00:03:28.003Z,1010.01
2018-05-17T00:04:27.981Z,1010.02
2018-05-17T00:05:27.965Z,1010.03
2018-05-17T00:06:27.962Z,1010.01
2018-05-17T00:07:27.931Z,1010.06
2018-05-17T00:08:27.912Z,1010.02
2018-05-17T00:09:27.891Z,1010.04
2018-05-17T00:10:27.873Z,1009.99
2018-05-17T00:11:27.857Z,1010.02
2018-05-17T00:12:27.847Z,1010.03
2018-05-17T00:13:27.817Z,1010.02
2018-05-17T00:14:27.799Z,1010.02
2018-05-17T00:15:27.782Z,1010.06
2018-05-17T00:16:27.764Z,1010.02
2018-05-17T00:17:27.763Z,1010.02
2018-05-17T00:18:27.726Z,1010.05
2018-05-17T00:19:27.713Z,1010.04
2018-05-17T00:20:27.690Z,1010.04
2018-05-17T00:21:27.671Z,1010.02
2018-05-17T00:22:27.670Z,1010.02
2018-05-17T00:23:27.635Z,1010.07
2018-05-17T00:24:27.620Z,1010.02
2018-05-17T00:25:27.599Z,1010.04
2018-05-17T00:26:27.583Z,1010.03
2018-05-17T00:27:27.562Z,1010.09
2018-05-17T00:28:27.552Z,1010.13
2018-05-17T00:29:27.526Z,1010.14
2018-05-17T00:30:27.507Z,1010.07
2018-05-17T00:31:27.489Z,1010.11
2018-05-17T00:32:27.470Z,1010.11
2018-05-17T00:33:27.463Z,1010.16
2018-05-17T00:34:27.432Z,1010.19
2018-05-17T00:35:27.415Z,1010.21
2018-05-17T00:36:27.398Z,1010.21
2018-05-17T00:37:27.378Z,1010.18
2018-05-17T00:38:27.375Z,1010.20
2018-05-17T00:39:27.343Z,1010.20
2018-05-17T00:40:27.324Z,1010.21
2018-05-17T00:41:27.312Z,1010.25
2018-05-17T00:42:27.292Z,1010.25
2018-05-17T00:43:27.267Z,1010.24
2018-05-17T00:44:27.259Z,1010.24
2018-05-17T00:45:27.229Z,1010.23
2018-05-17T00:46:27.211Z,1010.25
2018-05-17T00:47:27.189Z,1010.21
2018-05-17T00:48:27.173Z,1010.20
2018-05-17T00:49:27.167Z,1010.16
2018-05-17T00:50:27.138Z,1010.20
2018-05-17T00:51:27.119Z,1010.21
2018-05-17T00:52:27.170Z,1010.15
2018-05-17T00:53:27.082Z,1010.27
2018-05-17T00:54:27.080Z,1010.21
2018-05-17T00:55:27.044Z,1010.24
2018-05-17T00:56:27.026Z,1010.25
2018-05-17T00:57:27.008Z,1010.17
2018-05-17T00:58:26.988Z,1010.28
2018-05-17T00:59:26.971Z,1010.29
2018-05-17T01:00:26.963Z,1010.20
2018-05-17T01:01:26.932Z,1010.26
2018-05-17T01:02:26.914Z,1010.23
2018-05-17T01:03:26.899Z,1010.21
2018-05-17T01:04:26.879Z,1010.27
2018-05-17T01:05:26.878Z,1010.32
2018-05-17T01:06:26.840Z,1010.27
2018-05-17T01:07:26.823Z,1010.25
2018-05-17T01:08:26.802Z,1010.23
2018-05-17T01:09:26.786Z,1010.29
2018-05-17T01:10:26.765Z,1010.30
2018-05-17T01:11:26.756Z,1010.29
2018-05-17T01:12:26.728Z,1010.27
2018-05-17T01:13:26.708Z,1010.27
2018-05-17T01:14:26.690Z,1010.31
2018-05-17T01:15:26.671Z,1010.25
2018-05-17T01:16:26.667Z,1010.28
2018-05-17T01:17:26.635Z,1010.29
2018-05-17T01:18:26.614Z,1010.27
2018-05-17T01:19:26.597Z,1010.27
2018-05-17T01:20:26.579Z,1010.31
2018-05-17T01:21:26.586Z,1010.26
2018-05-17T01:22:26.540Z,1010.30
2018-05-17T01:23:26.521Z,1010.33
2018-05-17T01:24:26.503Z,1010.31
2018-05-17T01:25:26.484Z,1010.35
2018-05-17T01:26:26.463Z,1010.35
2018-05-17T01:27:26.457Z,1010.36
2018-05-17T01:28:26.428Z,1010.33
2018-05-17T01:29:26.412Z,1010.30
2018-05-17T01:30:26.391Z,1010.33
2018-05-17T01:31:26.371Z,1010.34
2018-05-17T01:32:26.371Z,1010.32
2018-05-17T01:33:26.336Z,1010.31
2018-05-17T01:34:26.313Z,1010.31
2018-05-17T01:35:26.296Z,1010.22
2018-05-17T01:36:26.278Z,1010.29
2018-05-17T01:37:26.260Z,1010.33
2018-05-17T01:38:26.253Z,1010.26
2018-05-17T01:39:26.223Z,1010.35
2018-05-17T01:40:26.205Z,1010.35
2018-05-17T01:41:26.183Z,1010.34
2018-05-17T01:42:26.164Z,1010.35
2018-05-17T01:43:26.155Z,1010.37
2018-05-17T01:44:26.129Z,1010.39
2018-05-17T01:45:26.110Z,1010.37
2018-05-17T01:46:26.089Z,1010.43
2018-05-17T01:47:26.067Z,1010.41
2018-05-17T01:48:26.066Z,1010.36
2018-05-17T01:49:26.033Z,1010.41
2018-05-17T01:50:26.011Z,1010.38
2018-05-17T01:51:25.994Z,1010.41
2018-05-17T01:52:25.975Z,1010.42
2018-05-17T01:53:26.048Z,1010.39
2018-05-17T01:54:25.947Z,1010.42
2018-05-17T14:29:06.634Z,1011.93
2018-05-17T14:30:06.610Z,1011.99
2018-05-17T14:31:06.598Z,1012.05
2018-05-17T14:32:06.590Z,1012.05
2018-05-17T14:33:06.580Z,1011.95
2018-05-17T14:34:06.572Z,1011.99
2018-05-17T14:35:06.575Z,1012.11
2018-05-17T14:36:06.552Z,1012.07
2018-05-17T14:37:06.543Z,1012.04
2018-05-17T14:38:06.535Z,1012.07
2018-05-17T14:39:06.526Z,1012.05
2018-05-17T14:40:06.529Z,1012.01
2018-05-17T14:41:06.510Z,1012.01
2018-05-17T14:42:06.501Z,1012.00
2018-05-17T14:43:06.494Z,1011.97
2018-05-17T14:44:06.484Z,1011.93
2018-05-17T14:45:06.495Z,1011.93
2018-05-17T14:46:06.537Z,1011.92
2018-05-17T14:47:06.461Z,1011.93
2018-05-17T14:48:06.454Z,1011.95
2018-05-17T14:49:06.448Z,1011.97
2018-05-17T14:50:06.459Z,1011.97
2018-05-17T14:51:06.432Z,1011.91
2018-05-17T14:52:06.425Z,1011.91
2018-05-17T14:53:06.417Z,1011.94
2018-05-17T14:54:06.409Z,1011.93
2018-05-17T14:55:06.407Z,1011.99
2018-05-17T14:56:06.406Z,1012.02
2018-05-17T14:57:06.389Z,1011.93
2018-05-17T14:58:06.380Z,1011.95
2018-05-17T14:59:06.371Z,1011.93
2018-05-17T15:00:06.368Z,1011.94
2018-05-17T15:01:06.487Z,1011.92
2018-05-17T15:02:06.353Z,1011.90
2018-05-17T15:03:06.345Z,1011.93
2018-05-17T15:04:06.339Z,1011.95
2018-05-17T15:05:06.331Z,1011.92
2018-05-17T15:06:06.323Z,1011.90
2018-05-17T15:07:06.324Z,1011.91
2018-05-17T15:08:06.308Z,1011.84
2018-05-17T15:09:06.301Z,1011.86
2018-05-17T15:10:06.296Z,1011.78
2018-05-17T15:11:06.292Z,1011.88
2018-05-17T15:12:06.302Z,1011.81
2018-05-17T15:13:06.273Z,1011.82
2018-05-17T15:14:06.359Z,1011.83
2018-05-17T15:15:06.259Z,1011.79
2018-05-17T15:16:06.252Z,1011.74
2018-05-17T15:17:06.256Z,1011.74
2018-05-17T15:18:06.238Z,1011.74
2018-05-17T15:19:06.321Z,1011.67
2018-05-17T15:20:06.224Z,1011.68
2018-05-17T15:21:06.221Z,1011.66
2018-05-17T15:22:06.252Z,1011.61
2018-05-17T15:23:06.205Z,1011.61
2018-05-17T15:24:06.199Z,1011.62
2018-05-17T15:25:06.196Z,1011.54
2018-05-17T15:26:06.187Z,1011.61
2018-05-17T15:27:06.180Z,1011.65
2018-05-17T15:28:06.182Z,1011.72
2018-05-17T15:29:06.166Z,1011.72
2018-05-17T15:30:06.160Z,1011.63
2018-05-17T15:31:06.152Z,1011.85
2018-05-17T15:32:06.147Z,1011.84
2018-05-17T15:33:06.156Z,1011.86
2018-05-17T15:34:06.135Z,1011.87
2018-05-17T15:35:06.127Z,1011.84
2018-05-17T15:36:06.123Z,1011.84
2018-05-17T15:37:06.114Z,1011.86
2018-05-17T15:38:06.108Z,1011.88
2018-05-17T15:39:06.120Z,1011.82
2018-05-17T15:40:06.097Z,1011.75
2018-05-17T15:41:06.089Z,1011.82
2018-05-17T15:42:06.086Z,1011.80
2018-05-17T15:43:06.074Z,1011.80
2018-05-17T15:44:06.078Z,1011.81
2018-05-17T15:45:06.063Z,1011.84
2018-05-17T15:46:06.061Z,1011.84
2018-05-17T15:47:06.050Z,1011.88
2018-05-17T15:48:06.048Z,1011.89
2018-05-17T15:49:06.047Z,1011.94
2018-05-17T15:50:06.031Z,1011.91
2018-05-17T15:51:06.025Z,1011.90
2018-05-17T15:52:06.019Z,1011.81
2018-05-17T15:53:06.014Z,1011.85
2018-05-17T15:54:06.044Z,1011.84
2018-05-17T15:55:05.998Z,1011.89
2018-05-17T15:56:05.992Z,1011.75
2018-05-17T15:57:05.986Z,1011.87
2018-05-17T15:58:05.982Z,1011.82
2018-05-17T15:59:05.974Z,1011.80
2018-05-17T16:00:05.978Z,1011.79
2018-05-17T16:01:05.961Z,1011.82
2018-05-17T16:02:05.963Z,1011.78
2018-05-17T16:03:05.954Z,1011.82
2018-05-17T16:04:05.944Z,1011.77
2018-05-17T16:05:05.969Z,1011.76
2018-05-17T16:06:05.933Z,1011.73
2018-05-17T16:07:05.928Z,1011.74
2018-05-17T16:08:05.924Z,1011.73
2018-05-17T16:09:05.915Z,1011.66
2018-05-17T16:10:05.911Z,1011.74
2018-05-17T16:11:05.913Z,1011.73
2018-05-17T16:12:05.896Z,1011.68
2018-05-17T16:13:05.890Z,1011.74
2018-05-17T16:14:05.885Z,1011.72
2018-05-17T16:15:05.958Z,1011.62
2018-05-17T16:16:05.886Z,1011.66
2018-05-17T16:17:05.867Z,1011.67
2018-05-17T16:18:05.863Z,1011.70
2018-05-17T16:19:05.858Z,1011.69
2018-05-17T16:20:05.854Z,1011.74
2018-05-17T16:21:05.857Z,1011.71
2018-05-17T16:22:05.841Z,1011.75
2018-05-17T16:23:05.834Z,1011.66
2018-05-17T16:24:05.831Z,1011.65
2018-05-17T16:25:05.827Z,1011.54
2018-05-17T16:26:05.864Z,1011.64
2018-05-17T16:27:05.813Z,1011.62
2018-05-17T16:28:05.809Z,1011.63
2018-05-17T16:29:05.804Z,1011.61
2018-05-17T16:30:05.798Z,1011.60
2018-05-17T16:31:05.790Z,1011.50
2018-05-17T16:32:05.796Z,1011.53
2018-05-17T16:33:05.780Z,1011.52
2018-05-17T16:34:05.776Z,1011.51
2018-05-17T16:35:05.768Z,1011.50
2018-05-17T16:36:05.764Z,1011.48
2018-05-17T16:37:05.771Z,1011.48
2018-05-17T16:38:05.753Z,1011.48
2018-05-17T16:39:05.747Z,1011.55
2018-05-17T16:40:05.738Z,1011.49
2018-05-17T16:41:05.734Z,1011.46
2018-05-17T16:42:05.729Z,1011.45
2018-05-17T16:43:05.736Z,1011.50
2018-05-17T16:44:05.713Z,1011.51
2018-05-17T16:45:05.714Z,1011.45
2018-05-17T16:46:05.702Z,1011.52
2018-05-17T16:47:05.695Z,1011.53
2018-05-17T16:48:05.699Z,1011.51
2018-05-17T16:49:05.682Z,1011.52
2018-05-17T16:50:05.676Z,1011.52
2018-05-17T16:51:05.668Z,1011.53
2018-05-17T16:52:05.666Z,1011.54
2018-05-17T16:53:05.793Z,1011.54
2018-05-17T16:54:05.659Z,1011.55
2018-05-17T16:55:05.644Z,1011.56
2018-05-17T16:56:05.637Z,1011.52
2018-05-17T16:57:05.632Z,1011.53
2018-05-17T16:58:05.645Z,1011.52
2018-05-17T16:59:05.618Z,1011.54
2018-05-17T17:00:05.613Z,1011.54
2018-05-17T17:01:05.611Z,1011.50
2018-05-17T17:02:05.602Z,1011.49
2018-05-17T17:03:05.595Z,1011.45
2018-05-17T17:04:05.600Z,1011.46
2018-05-17T17:05:05.605Z,1011.49
2018-05-17T17:06:05.579Z,1011.49
2018-05-17T17:07:05.574Z,1011.47
2018-05-17T17:08:05.565Z,1011.50
2018-05-17T17:09:05.574Z,1011.51
2018-05-17T17:10:05.616Z,1011.47
2018-05-17T17:11:05.550Z,1011.45
2018-05-17T17:12:05.543Z,1011.48
2018-05-17T17:13:05.537Z,1011.48
2018-05-17T17:14:05.532Z,1011.46
2018-05-17T17:15:05.539Z,1011.43
2018-05-17T17:16:05.522Z,1011.45
2018-05-17T17:17:05.517Z,1011.50
2018-05-17T17:18:05.510Z,1011.48
2018-05-17T17:19:05.503Z,1011.39
2018-05-17T17:20:05.511Z,1011.42
2018-05-17T17:21:05.492Z,1011.39
2018-05-17T17:22:05.488Z,1011.47
2018-05-17T17:23:05.481Z,1011.45
2018-05-17T17:24:05.473Z,1011.50
2018-05-17T17:25:05.479Z,1011.47
2018-05-17T17:26:05.468Z,1011.45
2018-05-17T17:27:05.458Z,1011.43
2018-05-17T17:28:05.449Z,1011.46
2018-05-17T17:29:05.447Z,1011.45
2018-05-17T17:30:05.487Z,1011.43
2018-05-17T17:31:05.435Z,1011.41
2018-05-17T17:32:05.427Z,1011.46
2018-05-17T17:33:05.418Z,1011.41
2018-05-17T17:34:05.413Z,1011.40
2018-05-17T17:35:05.417Z,1011.40
2018-05-17T17:36:05.400Z,1011.45
2018-05-17T17:37:05.394Z,1011.33
2018-05-17T17:38:05.387Z,1011.43
2018-05-17T17:39:05.378Z,1011.50
2018-05-17T17:40:05.388Z,1011.45
2018-05-17T17:41:05.364Z,1011.42
2018-05-17T17:42:05.368Z,1011.44
2018-05-17T17:43:05.351Z,1011.44
2018-05-17T17:44:05.345Z,1011.40
2018-05-17T17:45:05.357Z,1011.36
2018-05-17T17:46:05.331Z,1011.39
2018-05-17T17:47:05.321Z,1011.27
2018-05-17T17:48:05.318Z,1011.29
2018-05-17T17:49:05.308Z,1011.26
2018-05-17T17:50:05.301Z,1011.23
2018-05-17T17:51:05.309Z,1011.28
2018-05-17T17:52:05.284Z,1011.21
2018-05-17T17:53:05.282Z,1011.19
2018-05-17T17:54:05.268Z,1011.15
2018-05-17T17:55:05.260Z,1011.15
2018-05-17T17:56:05.254Z,1011.15
2018-05-17T17:57:05.259Z,1011.13
2018-05-17T17:58:05.235Z,1011.17
2018-05-17T17:59:05.226Z,1011.10
2018-05-17T18:00:05.217Z,1011.13
2018-05-17T18:01:05.205Z,1011.09
2018-05-17T18:02:05.206Z,1011.06
2018-05-17T18:03:05.187Z,1011.08
2018-05-17T18:04:05.177Z,1011.05
2018-05-17T18:05:05.188Z,1011.08
2018-05-17T18:06:05.156Z,1011.07
2018-05-17T18:07:05.154Z,1011.08
2018-05-17T18:08:05.134Z,1011.11
2018-05-17T18:09:05.125Z,1011.09
2018-05-17T18:10:05.113Z,1011.10
2018-05-17T18:11:05.101Z,1011.09
2018-05-17T18:12:05.100Z,1011.06
2018-05-17T18:13:05.080Z,1011.10
2018-05-17T18:14:05.068Z,1011.07
2018-05-17T18:15:05.055Z,1011.11
2018-05-17T18:16:05.043Z,1011.04
2018-05-17T18:17:05.049Z,1011.07
2018-05-17T18:18:05.022Z,1011.10
2018-05-17T18:19:05.009Z,1011.07
2018-05-17T18:20:04.995Z,1011.10
2018-05-17T18:21:04.985Z,1011.08
2018-05-17T18:22:04.971Z,1011.09
2018-05-17T18:23:04.972Z,1011.10
2018-05-17T18:24:05.036Z,1011.09
2018-05-17T18:25:04.933Z,1011.09
2018-05-17T18:26:04.921Z,1011.11
2018-05-17T18:27:04.907Z,1011.09
2018-05-17T18:28:04.905Z,1011.11
2018-05-17T18:29:04.882Z,1011.06
2018-05-17T18:30:04.868Z,1011.11
2018-05-17T18:31:04.855Z,1011.08
2018-05-17T18:32:04.855Z,1011.08
2018-05-17T18:33:04.841Z,1011.10
2018-05-17T18:34:04.816Z,1011.12
2018-05-17T18:35:04.800Z,1011.12
2018-05-17T18:36:04.788Z,1011.15
2018-05-17T18:37:04.777Z,1011.13
2018-05-17T18:38:04.795Z,1011.10
2018-05-17T18:39:04.799Z,1011.15
2018-05-17T18:40:04.736Z,1011.13
2018-05-17T18:41:04.721Z,1011.14
2018-05-17T18:42:04.707Z,1011.16
2018-05-17T18:43:04.783Z,1011.12
2018-05-17T18:44:04.689Z,1011.12
2018-05-17T18:45:04.664Z,1011.13
2018-05-17T18:46:04.651Z,1011.16
2018-05-17T18:47:04.636Z,1011.17
2018-05-17T18:48:04.623Z,1011.16
2018-05-17T18:49:04.784Z,1011.14
2018-05-17T18:50:04.593Z,1011.17
2018-05-17T18:51:04.641Z,1011.20
2018-05-17T18:52:04.566Z,1011.17
2018-05-17T18:53:04.551Z,1011.17
2018-05-17T18:54:04.550Z,1011.23
2018-05-17T18:55:04.521Z,1011.20
2018-05-17T18:56:04.515Z,1011.21
2018-05-17T18:57:04.581Z,1011.25
2018-05-17T18:58:04.480Z,1011.33
2018-05-17T18:59:04.497Z,1011.31
2018-05-17T19:00:04.449Z,1011.28
2018-05-17T19:01:04.436Z,1011.30
2018-05-17T19:02:04.421Z,1011.31
2018-05-17T19:03:04.403Z,1011.38
2018-05-17T19:04:04.391Z,1011.34
2018-05-17T19:05:04.385Z,1011.39
2018-05-17T19:06:04.361Z,1011.40
2018-05-17T19:07:04.345Z,1011.44
2018-05-17T19:08:04.330Z,1011.39
2018-05-17T19:09:04.315Z,1011.41
2018-05-17T19:10:04.310Z,1011.46
2018-05-17T19:11:04.285Z,1011.45
2018-05-17T19:12:04.270Z,1011.51
2018-05-17T19:13:04.253Z,1011.51
2018-05-17T19:14:04.241Z,1011.50
2018-05-17T19:15:04.234Z,1011.51
2018-05-17T19:16:04.209Z,1011.52
2018-05-17T19:17:04.194Z,1011.52
2018-05-17T19:18:04.179Z,1011.54
2018-05-17T19:19:04.162Z,1011.56
2018-05-17T19:20:04.160Z,1011.58
2018-05-17T19:21:04.133Z,1011.58
2018-05-17T19:22:04.116Z,1011.56
2018-05-17T19:23:04.099Z,1011.59
2018-05-17T19:24:04.085Z,1011.62
2018-05-17T19:25:04.083Z,1011.61
2018-05-17T19:26:04.063Z,1011.60
2018-05-17T19:27:04.039Z,1011.63
2018-05-17T19:28:04.022Z,1011.61
2018-05-17T19:29:04.007Z,1011.64
2018-05-17T19:30:03.991Z,1011.62
2018-05-17T19:31:03.986Z,1011.65
2018-05-17T19:32:03.959Z,1011.64
2018-05-17T19:33:03.943Z,1011.66
2018-05-17T19:34:03.928Z,1011.69
2018-05-17T19:35:03.912Z,1011.68
2018-05-17T19:36:03.917Z,1011.69
2018-05-17T19:37:03.908Z,1011.74
2018-05-17T19:38:03.866Z,1011.74
2018-05-17T19:39:03.849Z,1011.73
2018-05-17T19:40:03.831Z,1011.80
2018-05-17T19:41:03.816Z,1011.75
2018-05-17T19:42:03.809Z,1011.76
2018-05-17T19:43:03.784Z,1011.77
2018-05-17T19:44:03.767Z,1011.79
2018-05-17T19:45:03.753Z,1011.85
2018-05-17T19:46:03.734Z,1011.85
2018-05-17T19:47:03.728Z,1011.81
2018-05-17T19:48:03.702Z,1011.85
2018-05-17T19:49:03.687Z,1011.89
2018-05-17T19:50:03.670Z,1011.90
2018-05-17T19:51:03.654Z,1011.92
2018-05-17T19:52:03.649Z,1011.88
2018-05-17T19:53:03.705Z,1011.89
2018-05-17T19:54:03.608Z,1011.90
2018-05-17T19:55:03.588Z,1011.93
2018-05-17T19:56:03.578Z,1011.94
2018-05-17T19:57:03.568Z,1011.95
2018-05-17T19:58:03.540Z,1011.97
2018-05-17T19:59:03.524Z,1011.97
2018-05-17T20:00:03.509Z,1011.98
2018-05-17T20:01:03.491Z,1011.99
2018-05-17T20:02:03.487Z,1011.99
2018-05-17T20:03:03.457Z,1012.04
2018-05-17T20:04:03.441Z,1012.02
2018-05-17T20:05:03.505Z,1012.01
2018-05-17T20:06:03.409Z,1012.07
2018-05-17T20:07:03.389Z,1012.00
2018-05-17T20:08:03.384Z,1012.05
2018-05-17T20:09:03.357Z,1012.05
2018-05-17T20:10:03.340Z,1012.02
2018-05-17T20:11:03.325Z,1012.05
2018-05-17T20:12:03.315Z,1012.10
2018-05-17T20:13:03.301Z,1012.08
2018-05-17T20:14:03.287Z,1012.10
2018-05-17T20:15:03.258Z,1012.10
2018-05-17T20:16:03.239Z,1012.16
2018-05-17T20:17:03.223Z,1012.12
2018-05-17T20:18:03.224Z,1012.16
2018-05-17T20:19:03.190Z,1012.20
2018-05-17T20:20:03.175Z,1012.22
2018-05-17T20:21:03.158Z,1012.19
2018-05-17T20:22:03.140Z,1012.21
2018-05-17T20:23:03.125Z,1012.21
2018-05-17T20:24:03.125Z,1012.19
2018-05-17T20:25:03.090Z,1012.23
2018-05-17T20:26:03.079Z,1012.21
2018-05-17T20:27:03.058Z,1012.24
2018-05-17T20:28:03.039Z,1012.25
2018-05-17T20:29:03.033Z,1012.25
2018-05-17T20:30:03.005Z,1012.26
2018-05-17T20:31:02.991Z,1012.25
2018-05-17T20:32:02.973Z,1012.24
2018-05-17T20:33:02.954Z,1012.26
2018-05-17T20:34:02.947Z,1012.20
2018-05-17T20:35:02.920Z,1012.24
2018-05-17T20:36:02.904Z,1012.24
2018-05-17T20:37:02.888Z,1012.23
2018-05-17T20:38:02.867Z,1012.24
2018-05-17T20:39:02.868Z,1012.21
2018-05-17T20:40:02.833Z,1012.27
2018-05-17T20:41:02.819Z,1012.24
2018-05-17T20:42:02.800Z,1012.27
2018-05-17T20:43:02.780Z,1012.27
2018-05-17T20:44:02.766Z,1012.25
2018-05-17T20:45:02.764Z,1012.26
2018-05-17T20:46:02.730Z,1012.27
2018-05-17T20:47:02.716Z,1012.29
2018-05-17T20:48:02.696Z,1012.31
2018-05-17T20:49:02.679Z,1012.25
2018-05-17T20:50:02.672Z,1012.28
2018-05-17T20:51:02.644Z,1012.24
2018-05-17T20:52:02.632Z,1012.26
2018-05-17T20:53:02.610Z,1012.27
2018-05-17T20:54:02.596Z,1012.28
2018-05-17T20:55:02.584Z,1012.24
2018-05-17T20:56:02.558Z,1012.30
2018-05-17T20:57:02.544Z,1012.29
2018-05-17T20:58:02.525Z,1012.30
2018-05-17T20:59:02.505Z,1012.24
2018-05-17T21:00:02.507Z,1012.23
2018-05-17T21:01:02.471Z,1012.25
2018-05-17T21:02:02.455Z,1012.25
2018-05-17T21:03:02.437Z,1012.27
2018-05-17T21:04:02.421Z,1012.29
2018-05-17T21:05:02.401Z,1012.31
2018-05-17T21:06:02.397Z,1012.37
2018-05-17T21:07:02.366Z,1012.36
2018-05-17T21:08:02.348Z,1012.36
2018-05-17T21:09:02.331Z,1012.34
2018-05-17T21:10:02.313Z,1012.37
2018-05-17T21:11:02.307Z,1012.37
2018-05-17T21:12:02.277Z,1012.35
2018-05-17T21:13:02.264Z,1012.36
2018-05-17T21:14:02.244Z,1012.35
2018-05-17T21:15:02.228Z,1012.37
2018-05-17T21:16:02.220Z,1012.37
2018-05-17T21:17:02.190Z,1012.37
2018-05-17T21:18:02.173Z,1012.41
2018-05-17T21:19:02.160Z,1012.41
2018-05-17T21:20:02.140Z,1012.40
2018-05-17T21:21:02.203Z,1012.46
2018-05-17T21:22:02.103Z,1012.48
2018-05-17T21:23:02.093Z,1012.43
2018-05-17T21:24:02.068Z,1012.42
2018-05-17T21:25:02.049Z,1012.44
2018-05-17T21:26:02.031Z,1012.46
2018-05-17T21:27:02.023Z,1012.44
2018-05-17T21:28:01.995Z,1012.43
2018-05-17T21:29:01.977Z,1012.47
2018-05-17T21:30:01.958Z,1012.46
2018-05-17T21:31:01.955Z,1012.46
2018-05-17T21:32:01.934Z,1012.49
2018-05-17T21:33:01.907Z,1012.48
2018-05-17T21:34:01.992Z,1012.50
2018-05-17T21:35:01.874Z,1012.52
2018-05-17T21:36:01.852Z,1012.48
2018-05-17T21:37:01.850Z,1012.46
2018-05-17T21:38:01.819Z,1012.48
2018-05-17T21:39:01.800Z,1012.46
2018-05-17T21:40:01.783Z,1012.46
2018-05-17T21:41:01.764Z,1012.44
2018-05-17T21:42:01.746Z,1012.45
2018-05-17T21:43:01.739Z,1012.48
2018-05-17T21:44:01.771Z,1012.46
2018-05-17T21:45:01.697Z,1012.48
2018-05-17T21:46:01.674Z,1012.49
2018-05-17T21:47:01.655Z,1012.51
2018-05-17T21:48:01.652Z,1012.51
2018-05-17T21:49:01.622Z,1012.57
2018-05-17T21:50:01.601Z,1012.56
2018-05-17T21:51:01.581Z,1012.61
2018-05-17T21:52:01.570Z,1012.61
2018-05-17T21:53:01.567Z,1012.62
2018-05-17T21:54:01.528Z,1012.61
2018-05-17T21:55:01.512Z,1012.62
2018-05-17T21:56:01.492Z,1012.64
2018-05-17T21:57:01.476Z,1012.65
2018-05-17T21:58:01.456Z,1012.64
2018-05-17T21:59:01.449Z,1012.65
2018-05-17T22:00:01.421Z,1012.64
2018-05-17T22:01:01.404Z,1012.67
2018-05-17T22:02:01.386Z,1012.67
2018-05-17T22:03:01.367Z,1012.70
2018-05-17T22:04:01.357Z,1012.67
2018-05-17T22:05:01.333Z,1012.64
2018-05-17T22:06:01.313Z,1012.64
2018-05-17T22:07:01.295Z,1012.64
2018-05-17T22:08:01.276Z,1012.67
2018-05-17T22:09:01.267Z,1012.68
2018-05-17T22:10:01.243Z,1012.74
2018-05-17T22:11:01.221Z,1012.71
2018-05-17T22:12:01.203Z,1012.73
2018-05-17T22:13:01.185Z,1012.73
2018-05-17T22:14:01.179Z,1012.73
2018-05-17T22:15:01.159Z,1012.74
2018-05-17T22:16:01.130Z,1012.72
2018-05-17T22:17:01.112Z,1012.72
2018-05-17T22:18:01.095Z,1012.72
2018-05-17T22:19:01.111Z,1012.77
2018-05-17T22:20:01.055Z,1012.75
2018-05-17T22:21:01.038Z,1012.77
2018-05-17T22:22:01.021Z,1012.78
2018-05-17T22:23:00.999Z,1012.75
2018-05-17T22:24:00.982Z,1012.76
2018-05-17T22:25:00.983Z,1012.76
2018-05-17T22:26:00.948Z,1012.76
2018-05-17T22:27:00.928Z,1012.79
2018-05-17T22:28:00.909Z,1012.78
2018-05-17T22:29:00.892Z,1012.79
2018-05-17T22:30:00.884Z,1012.76
2018-05-17T22:31:00.852Z,1012.79
2018-05-17T22:32:00.833Z,1012.77
2018-05-17T22:33:00.818Z,1012.78
2018-05-17T22:34:00.800Z,1012.84
2018-05-17T22:35:00.790Z,1012.81
2018-05-17T22:36:00.762Z,1012.80
2018-05-17T22:37:00.744Z,1012.82
2018-05-17T22:38:00.726Z,1012.78
2018-05-17T22:39:00.706Z,1012.80
2018-05-17T22:40:00.703Z,1012.80
2018-05-17T22:41:00.670Z,1012.81
2018-05-17T22:42:00.653Z,1012.82
2018-05-17T22:43:00.631Z,1012.81
2018-05-17T22:44:00.614Z,1012.86
2018-05-17T22:45:00.596Z,1012.82
2018-05-17T22:46:00.590Z,1012.84
2018-05-17T22:47:00.558Z,1012.78
2018-05-17T22:48:00.547Z,1012.78
2018-05-17T22:49:00.522Z,1012.77
2018-05-17T22:50:00.505Z,1012.79
2018-05-17T22:51:00.499Z,1012.80
2018-05-17T22:52:00.463Z,1012.79
2018-05-17T22:53:00.446Z,1012.79
2018-05-17T22:54:00.429Z,1012.78
2018-05-17T22:55:00.409Z,1012.77
2018-05-17T22:56:00.388Z,1012.74
2018-05-17T22:57:00.393Z,1012.78
2018-05-17T22:58:00.353Z,1012.75
2018-05-17T22:59:00.334Z,1012.75
2018-05-17T23:00:00.314Z,1012.75
2018-05-17T23:01:00.297Z,1012.71
2018-05-17T23:02:00.287Z,1012.72
2018-05-17T23:03:00.266Z,1012.71
2018-05-17T23:04:00.239Z,1012.71
2018-05-17T23:05:00.223Z,1012.72
2018-05-17T23:06:00.205Z,1012.73
2018-05-17T23:07:00.197Z,1012.70
2018-05-17T23:08:00.165Z,1012.70
2018-05-17T23:09:00.146Z,1012.69
2018-05-17T23:10:00.128Z,1012.66
2018-05-17T23:11:00.107Z,1012.69
2018-05-17T23:12:00.111Z,1012.69
2018-05-17T23:13:00.069Z,1012.69
2018-05-17T23:14:00.053Z,1012.70
2018-05-17T23:15:00.036Z,1012.64
2018-05-17T23:16:00.015Z,1012.64
2018-05-17T23:16:59.995Z,1012.65
2018-05-17T23:17:59.991Z,1012.65
2018-05-17T23:18:59.957Z,1012.70
2018-05-17T23:19:59.938Z,1012.70
2018-05-17T23:20:59.921Z,1012.69
2018-05-17T23:21:59.901Z,1012.69
2018-05-17T23:22:59.881Z,1012.68
2018-05-17T23:23:59.872Z,1012.66
2018-05-17T23:24:59.844Z,1012.66
2018-05-17T23:25:59.824Z,1012.71
2018-05-17T23:26:59.809Z,1012.65
2018-05-17T23:27:59.792Z,1012.66
2018-05-17T23:28:59.779Z,1012.64
2018-05-17T23:29:59.750Z,1012.67
2018-05-17T23:30:59.732Z,1012.66
2018-05-17T23:31:59.710Z,1012.66
2018-05-17T23:32:59.690Z,1012.62
2018-05-17T23:33:59.683Z,1012.64
2018-05-17T23:34:59.655Z,1012.62
2018-05-17T23:35:59.634Z,1012.66
2018-05-17T23:36:59.615Z,1012.63
2018-05-17T23:37:59.597Z,1012.63
2018-05-17T23:38:59.586Z,1012.69
2018-05-17T23:39:59.557Z,1012.65
2018-05-17T23:40:59.542Z,1012.67
2018-05-17T23:41:59.519Z,1012.66
2018-05-17T23:42:59.501Z,1012.67
2018-05-17T23:43:59.501Z,1012.67
2018-05-17T23:44:59.461Z,1012.63
2018-05-17T23:45:59.442Z,1012.64
2018-05-17T23:46:59.422Z,1012.62
2018-05-17T23:47:59.403Z,1012.63
2018-05-17T23:48:59.387Z,1012.62
2018-05-17T23:49:59.377Z,1012.61
2018-05-17T23:50:59.346Z,1012.63
2018-05-17T23:51:59.327Z,1012.66
2018-05-17T23:52:59.310Z,1012.63
2018-05-17T23:53:59.292Z,1012.69
2018-05-17T23:54:59.278Z,1012.69
2018-05-17T23:55:59.250Z,1012.68
2018-05-17T23:56:59.231Z,1012.71
2018-05-17T23:57:59.211Z,1012.67
2018-05-17T23:58:59.194Z,1012.66
2018-05-17T23:59:59.193Z,1012.63
